Flight Track Log - Related Links

Times and Time Zones

All times are in EDT time to prevent confusion due to time zone crossing. See the NGF90H flight status page for this flight to view local times or setup timezone preferences in your user account.

Time Position Orientation Groundspeed Altitude Reporting Facility
EDT Latitude Longitude Course Direction KTS MPH feet Rate Location/Type
Thu 11:32:06 AM 39.2000 -77.1500 38° Northeast 89 102 2,300  Level Potomac TRACON
Thu 11:33:06 AM 39.2167 -77.1333 38° Northeast 100 115 2,900 600 Climbing Potomac TRACON
Thu 11:34:06 AM 39.2500 -77.1167 21° North 109 125 3,500 650 Climbing Potomac TRACON
Thu 11:35:06 AM 39.2500 -77.0833 90° East 110 127 4,200 700 Climbing Potomac TRACON
Thu 11:36:06 AM 39.2667 -77.0500 57° Northeast 105 121 4,900 400 Climbing Potomac TRACON
Thu 11:37:06 AM 39.2833 -77.0167 57° Northeast 117 135 5,000 52 Climbing Potomac TRACON
Thu 11:38:01 AM 39.2833 -76.9667 90° East 117 135 5,000  Level Potomac TRACON
Thu 11:39:07 AM 39.3000 -76.9333 57° Northeast 118 136 5,000  Level Potomac TRACON
Thu 11:40:07 AM 39.3000 -76.8833 90° East 119 137 5,000  Level Potomac TRACON
Thu 11:41:01 AM 39.3000 -76.8500 90° East 122 140 5,000  Level Potomac TRACON
Thu 11:42:01 AM 39.2833 -76.8000 113° Southeast 124 143 5,000  Level Potomac TRACON
Thu 11:43:01 AM 39.2667 -76.7667 123° Southeast 122 140 5,000  Level Potomac TRACON
Thu 11:44:01 AM 39.2500 -76.7333 123° Southeast 123 142 5,000  Level Potomac TRACON
Thu 11:45:01 AM 39.2333 -76.7000 123° Southeast 123 142 5,000  Level Potomac TRACON
Thu 11:46:01 AM 39.2167 -76.6500 113° Southeast 131 151 5,000  Level Potomac TRACON
Thu 11:47:01 AM 39.2000 -76.6167 123° Southeast 128 147 5,000  Level Potomac TRACON
Thu 11:48:01 AM 39.1833 -76.5667 113° Southeast 125 144 5,000  Level Potomac TRACON
Thu 11:49:01 AM 39.1667 -76.5333 123° Southeast 128 147 5,000  Level Potomac TRACON
Thu 11:50:01 AM 39.1500 -76.5000 123° Southeast 128 147 5,000  Level Potomac TRACON
Thu 11:51:01 AM 39.1333 -76.4500 113° Southeast 127 146 5,000  Level Potomac TRACON
Thu 11:52:01 AM 39.1167 -76.4167 123° Southeast 131 151 5,000  Level Potomac TRACON
Thu 11:53:02 AM 39.1000 -76.3667 113° Southeast 128 147 5,000  Level Potomac TRACON
Thu 11:54:02 AM 39.0833 -76.3333 123° Southeast 126 145 5,000  Level Potomac TRACON
Thu 11:55:02 AM 39.0667 -76.2833 113° Southeast 125 144 5,000  Level Potomac TRACON
Thu 11:56:02 AM 39.0500 -76.2500 123° Southeast 126 145 5,000  Level Potomac TRACON
Thu 11:57:02 AM 39.0500 -76.2167 90° East 125 144 5,000  Level Potomac TRACON
Thu 11:58:03 AM 39.0333 -76.1667 113° Southeast 123 142 5,000  Level Potomac TRACON
Thu 11:58:57 AM 39.0167 -76.1333 123° Southeast 123 142 5,000  Level Potomac TRACON
Thu 12:00:00 PM 38.9992 -76.0983 123° Southeast  Level FlightAware Approximate
Thu 12:07:00 PM 38.8828 -75.8655 123° Southeast  Level FlightAware Approximate
Thu 12:08:00 PM 38.8660 -75.8317 117° Southeast  Level FlightAware Approximate
Thu 12:09:00 PM 38.8520 -75.7965 117° Southeast  Level FlightAware Approximate
Thu 12:10:00 PM 38.8380 -75.7614 117° Southeast  Level FlightAware Approximate
Thu 12:11:00 PM 38.8239 -75.7262 117° Southeast  Level FlightAware Approximate
Thu 12:12:00 PM 38.8099 -75.6911 117° Southeast  Level FlightAware Approximate
Thu 12:13:00 PM 38.7958 -75.6560 117° Southeast  Level FlightAware Approximate
Thu 12:14:00 PM 38.7817 -75.6209 117° Southeast  Level FlightAware Approximate
Thu 12:15:00 PM 38.7677 -75.5858 117° Southeast  Level FlightAware Approximate
Thu 12:16:00 PM 38.7543 -75.5503 116° Southeast  Level FlightAware Approximate
Thu 12:17:00 PM 38.7410 -75.5147 116° Southeast  Level FlightAware Approximate
Thu 12:18:00 PM 38.7276 -75.4792 116° Southeast  Level FlightAware Approximate
Thu 12:19:00 PM 38.7145 -75.4436 113° Southeast  Level FlightAware Approximate
Thu 12:20:00 PM 38.7024 -75.4073 113° Southeast  Level FlightAware Approximate
Thu 12:21:00 PM 38.6904 -75.3711 113° Southeast  Level FlightAware Approximate
Thu 12:22:00 PM 38.6879 -75.3584 113° Southeast  Level Estimated
Thu 12:23:00 PM 38.6879 -75.3584 113° Southeast  Level Estimated
Thu 12:24:00 PM 38.6879 -75.3584 113° Southeast  Level Estimated
Thu 12:25:00 PM 38.6879 -75.3584 113° Southeast  Level Estimated

Login

Don't have an account? Register now (free) for customized features, flight alerts, and more!